Time,TemperatureF,DewpointF,PressureIn,WindDirection,WindDirectionDegrees,WindSpeedMPH,WindSpeedGustMPH,Humidity,HourlyPrecipIn,Conditions,Clouds,dailyrainin,SolarRadiationWatts/m^2,SoftwareType,DateUTC
2013-11-20 00:12:00,44.0,44.0,-100.00,SE,125,0.0,4.0,99,0.05,,,0.09,0.000000,,2013-11-20 08:12:00,
2013-11-20 00:21:00,44.0,44.0,-100.00,SE,125,0.0,4.0,99,0.05,,,0.09,0.000000,,2013-11-20 08:21:00,
2013-11-20 00:32:00,44.0,44.0,-100.00,SE,125,0.0,4.0,99,0.05,,,0.09,0.000000,,2013-11-20 08:32:00,
2013-11-20 00:42:00,44.0,44.0,-100.00,SE,125,0.0,4.0,99,0.05,,,0.09,0.000000,,2013-11-20 08:42:00,
2013-11-20 01:12:00,45.0,43.0,-100.00,ESE,121,0.0,5.0,94,0.03,,,0.12,0.000000,,2013-11-20 09:12:00,
2013-11-20 01:21:00,45.0,43.0,-100.00,ESE,121,0.0,5.0,94,0.03,,,0.12,0.000000,,2013-11-20 09:21:00,
2013-11-20 01:33:00,45.0,43.0,-100.00,ESE,121,0.0,5.0,94,0.03,,,0.12,0.000000,,2013-11-20 09:33:00,
2013-11-20 01:43:00,45.0,43.0,-100.00,ESE,121,0.0,5.0,94,0.03,,,0.12,0.000000,,2013-11-20 09:43:00,
2013-11-20 02:12:00,43.0,43.0,-100.00,North,349,0.0,3.0,99,0.02,,,0.14,0.000000,,2013-11-20 10:12:00,
2013-11-20 02:23:00,43.0,43.0,-100.00,North,349,0.0,3.0,99,0.02,,,0.14,0.000000,,2013-11-20 10:23:00,
2013-11-20 02:32:00,43.0,43.0,-100.00,North,349,0.0,3.0,99,0.02,,,0.14,0.000000,,2013-11-20 10:32:00,
2013-11-20 02:43:00,43.0,43.0,-100.00,North,349,0.0,3.0,99,0.02,,,0.14,0.000000,,2013-11-20 10:43:00,
2013-11-20 03:22:00,43.0,43.0,-100.00,SW,215,0.0,3.0,99,0.02,,,0.16,0.000000,,2013-11-20 11:22:00,
2013-11-20 03:33:00,43.0,43.0,-100.00,SW,215,0.0,3.0,99,0.02,,,0.16,0.000000,,2013-11-20 11:33:00,
2013-11-20 03:42:00,43.0,43.0,-100.00,SW,215,0.0,3.0,99,0.02,,,0.16,0.000000,,2013-11-20 11:42:00,
2013-11-20 04:11:00,45.0,44.0,-100.00,South,172,8.0,11.0,95,0.00,,,0.16,0.000000,,2013-11-20 12:11:00,
2013-11-20 04:22:00,45.0,44.0,-100.00,South,172,8.0,11.0,95,0.00,,,0.16,0.000000,,2013-11-20 12:22:00,
2013-11-20 04:32:00,45.0,44.0,-100.00,South,172,8.0,11.0,95,0.00,,,0.16,0.000000,,2013-11-20 12:32:00,
2013-11-20 04:42:00,45.0,44.0,-100.00,South,172,8.0,11.0,95,0.00,,,0.16,0.000000,,2013-11-20 12:42:00,
2013-11-20 05:11:00,43.0,42.0,-100.00,South,174,5.0,11.0,98,0.00,,,0.16,0.000000,,2013-11-20 13:11:00,
2013-11-20 05:21:00,43.0,42.0,-100.00,South,174,5.0,11.0,98,0.00,,,0.16,0.000000,,2013-11-20 13:21:00,
2013-11-20 05:32:00,43.0,42.0,-100.00,South,174,5.0,11.0,98,0.00,,,0.16,0.000000,,2013-11-20 13:32:00,
2013-11-20 05:42:00,43.0,42.0,-100.00,South,174,5.0,11.0,98,0.00,,,0.16,0.000000,,2013-11-20 13:42:00,
2013-11-20 06:22:00,44.0,43.0,-100.00,SSE,162,5.0,9.0,95,0.00,,,-99.99,0.000000,,2013-11-20 14:22:00,
2013-11-20 06:32:00,44.0,43.0,-100.00,SSE,162,5.0,9.0,95,0.00,,,-99.99,0.000000,,2013-11-20 14:32:00,
2013-11-20 06:42:00,44.0,43.0,-100.00,SSE,162,5.0,9.0,95,0.00,,,-99.99,0.000000,,2013-11-20 14:42:00,
2013-11-20 07:11:00,44.0,42.0,-100.00,SSW,199,5.0,11.0,94,0.00,,,-99.99,0.000000,,2013-11-20 15:11:00,
2013-11-20 07:21:00,44.0,42.0,-100.00,SSW,199,5.0,11.0,94,0.00,,,-99.99,0.000000,,2013-11-20 15:21:00,
2013-11-20 07:33:00,44.0,42.0,-100.00,SSW,199,5.0,11.0,94,0.00,,,-99.99,0.000000,,2013-11-20 15:33:00,
2013-11-20 07:43:00,44.0,42.0,-100.00,SSW,199,5.0,11.0,94,0.00,,,-99.99,0.000000,,2013-11-20 15:43:00,
2013-11-20 08:23:00,45.0,42.0,-100.00,SSW,205,3.0,11.0,88,0.00,,,0.16,32.000000,,2013-11-20 16:23:00,
2013-11-20 08:34:00,45.0,42.0,-100.00,SSW,205,3.0,11.0,88,0.00,,,0.16,32.000000,,2013-11-20 16:34:00,
2013-11-20 08:43:00,45.0,42.0,-100.00,SSW,205,3.0,11.0,88,0.00,,,0.16,32.000000,,2013-11-20 16:43:00,
2013-11-20 09:22:00,46.0,41.0,-100.00,South,191,5.0,12.0,84,0.00,,,0.16,145.000000,,2013-11-20 17:22:00,
2013-11-20 09:33:00,46.0,41.0,-100.00,South,191,5.0,12.0,84,0.00,,,0.16,145.000000,,2013-11-20 17:33:00,
2013-11-20 09:42:00,46.0,41.0,-100.00,South,191,5.0,12.0,84,0.00,,,0.16,145.000000,,2013-11-20 17:42:00,
2013-11-20 10:21:00,51.0,43.0,-100.00,WSW,237,1.0,8.0,75,0.00,,,0.16,319.000000,,2013-11-20 18:21:00,
2013-11-20 10:32:00,51.0,43.0,-100.00,WSW,237,1.0,8.0,75,0.00,,,0.16,319.000000,,2013-11-20 18:32:00,
2013-11-20 10:42:00,51.0,43.0,-100.00,WSW,237,1.0,8.0,75,0.00,,,0.16,319.000000,,2013-11-20 18:42:00,
2013-11-20 11:21:00,55.0,42.0,-100.00,NNE,24,0.0,6.0,62,0.00,,,-99.99,597.000000,,2013-11-20 19:21:00,
2013-11-20 11:32:00,55.0,42.0,-100.00,NNE,24,0.0,6.0,62,0.00,,,-99.99,597.000000,,2013-11-20 19:32:00,
2013-11-20 11:41:00,55.0,42.0,-100.00,NNE,24,0.0,6.0,62,0.00,,,-99.99,597.000000,,2013-11-20 19:41:00,
2013-11-20 13:11:00,54.0,40.0,-100.00,ESE,115,0.0,5.0,58,-99.99,,,0.16,344.000000,,2013-11-20 21:11:00,
2013-11-20 13:21:00,54.0,40.0,-100.00,ESE,115,0.0,5.0,58,-99.99,,,0.16,344.000000,,2013-11-20 21:21:00,
2013-11-20 13:33:00,54.0,40.0,-100.00,ESE,115,0.0,5.0,58,-99.99,,,0.16,344.000000,,2013-11-20 21:33:00,
2013-11-20 13:43:00,54.0,40.0,-100.00,ESE,115,0.0,5.0,58,-99.99,,,0.16,344.000000,,2013-11-20 21:43:00,
2013-11-20 14:13:00,54.0,37.0,-100.00,NW,320,0.0,5.0,52,0.00,,,0.16,229.000000,,2013-11-20 22:13:00,
2013-11-20 14:23:00,54.0,37.0,-100.00,NW,320,0.0,5.0,52,0.00,,,0.16,229.000000,,2013-11-20 22:23:00,
2013-11-20 14:32:00,54.0,37.0,-100.00,NW,320,0.0,5.0,52,0.00,,,0.16,229.000000,,2013-11-20 22:32:00,
2013-11-20 14:42:00,54.0,37.0,-100.00,NW,320,0.0,5.0,52,0.00,,,0.16,229.000000,,2013-11-20 22:42:00,
2013-11-20 15:12:00,53.0,38.0,-100.00,NNW,335,3.0,7.0,57,0.00,,,0.16,171.000000,,2013-11-20 23:12:00,
2013-11-20 15:21:00,53.0,38.0,-100.00,NNW,335,3.0,7.0,57,0.00,,,0.16,171.000000,,2013-11-20 23:21:00,
2013-11-20 15:32:00,53.0,38.0,-100.00,NNW,335,3.0,7.0,57,0.00,,,0.16,171.000000,,2013-11-20 23:32:00,
2013-11-20 15:42:00,53.0,38.0,-100.00,NNW,335,3.0,7.0,57,0.00,,,0.16,171.000000,,2013-11-20 23:42:00,
2013-11-20 16:11:00,50.0,38.0,-100.00,ENE,60,3.0,8.0,62,0.00,,,0.16,87.000000,,2013-11-21 00:11:00,
2013-11-20 16:21:00,50.0,38.0,-100.00,ENE,60,3.0,8.0,62,0.00,,,0.16,87.000000,,2013-11-21 00:21:00,
2013-11-20 16:32:00,50.0,38.0,-100.00,ENE,60,3.0,8.0,62,0.00,,,0.16,87.000000,,2013-11-21 00:32:00,
2013-11-20 16:42:00,50.0,38.0,-100.00,ENE,60,3.0,8.0,62,0.00,,,0.16,87.000000,,2013-11-21 00:42:00,
2013-11-20 17:11:00,48.0,39.0,-100.00,East,87,2.0,5.0,71,0.00,,,0.16,16.000000,,2013-11-21 01:11:00,
2013-11-20 17:21:00,48.0,39.0,-100.00,East,87,2.0,5.0,71,0.00,,,0.16,16.000000,,2013-11-21 01:21:00,
2013-11-20 17:32:00,48.0,39.0,-100.00,East,87,2.0,5.0,71,0.00,,,0.16,16.000000,,2013-11-21 01:32:00,
2013-11-20 17:42:00,48.0,39.0,-100.00,East,87,2.0,5.0,71,0.00,,,0.16,16.000000,,2013-11-21 01:42:00,
2013-11-20 18:11:00,46.0,39.0,-100.00,West,279,6.0,20.0,75,0.00,,,0.16,0.000000,,2013-11-21 02:11:00,
2013-11-20 18:21:00,46.0,39.0,-100.00,West,279,6.0,20.0,75,0.00,,,0.16,0.000000,,2013-11-21 02:21:00,
2013-11-20 18:32:00,46.0,39.0,-100.00,West,279,6.0,20.0,75,0.00,,,0.16,0.000000,,2013-11-21 02:32:00,
2013-11-20 18:42:00,46.0,39.0,-100.00,West,279,6.0,20.0,75,0.00,,,0.16,0.000000,,2013-11-21 02:42:00,
2013-11-20 19:11:00,42.0,41.0,-100.00,North,353,9.0,21.0,96,0.08,,,0.24,0.000000,,2013-11-21 03:11:00,
2013-11-20 19:21:00,42.0,41.0,-100.00,North,353,9.0,21.0,96,0.08,,,0.24,0.000000,,2013-11-21 03:21:00,
2013-11-20 19:33:00,42.0,41.0,-100.00,North,353,9.0,21.0,96,0.08,,,0.24,0.000000,,2013-11-21 03:33:00,
2013-11-20 19:43:00,42.0,41.0,-100.00,North,353,9.0,21.0,96,0.08,,,0.24,0.000000,,2013-11-21 03:43:00,
2013-11-20 20:13:00,43.0,42.0,-100.00,NNE,13,5.0,17.0,96,0.06,,,0.30,0.000000,,2013-11-21 04:13:00,
2013-11-20 20:23:00,43.0,42.0,-100.00,NNE,13,5.0,17.0,96,0.06,,,0.30,0.000000,,2013-11-21 04:23:00,
2013-11-20 20:33:00,43.0,42.0,-100.00,NNE,13,5.0,17.0,96,0.06,,,0.30,0.000000,,2013-11-21 04:33:00,
2013-11-20 20:43:00,43.0,42.0,-100.00,NNE,13,5.0,17.0,96,0.06,,,0.30,0.000000,,2013-11-21 04:43:00,
2013-11-20 21:22:00,42.0,42.0,-100.00,SSE,165,11.0,16.0,99,0.04,,,0.34,0.000000,,2013-11-21 05:22:00,
2013-11-20 21:32:00,42.0,42.0,-100.00,SSE,165,11.0,16.0,99,0.04,,,0.34,0.000000,,2013-11-21 05:32:00,
2013-11-20 21:42:00,42.0,42.0,-100.00,SSE,165,11.0,16.0,99,0.04,,,0.34,0.000000,,2013-11-21 05:42:00,
2013-11-20 22:12:00,39.0,39.0,-100.00,NNE,17,9.0,18.0,100,0.10,,,0.43,0.000000,,2013-11-21 06:12:00,
2013-11-20 22:22:00,39.0,39.0,-100.00,NNE,17,9.0,18.0,100,0.10,,,0.43,0.000000,,2013-11-21 06:22:00,
2013-11-20 22:33:00,39.0,39.0,-100.00,NNE,17,9.0,18.0,100,0.10,,,0.43,0.000000,,2013-11-21 06:33:00,
2013-11-20 22:42:00,39.0,39.0,-100.00,NNE,17,9.0,18.0,100,0.10,,,0.43,0.000000,,2013-11-21 06:42:00,
2013-11-20 23:11:00,38.0,38.0,-100.00,North,356,12.0,17.0,99,0.12,,,0.52,0.000000,,2013-11-21 07:11:00,
2013-11-20 23:22:00,38.0,38.0,-100.00,North,356,12.0,17.0,99,0.12,,,0.52,0.000000,,2013-11-21 07:22:00,
2013-11-20 23:33:00,38.0,38.0,-100.00,North,356,12.0,17.0,99,0.12,,,0.52,0.000000,,2013-11-21 07:33:00,
2013-11-20 23:42:00,38.0,38.0,-100.00,North,356,12.0,17.0,99,0.12,,,0.52,0.000000,,2013-11-21 07:42:00,